sensor_id;sensor_type;location;lat;lon;timestamp;pressure;altitude;pressure_sealevel;temperature;humidity
45113;BME280;30873;53.908;27.576;2023-04-01T00:01:38;998.8;;;9.7;90.6
45113;BME280;30873;53.908;27.576;2023-04-01T00:06:04;998.8;;;9.7;91
45113;BME280;30873;53.908;27.576;2023-04-01T00:10:50;998.8;;;9.7;91.2
45113;BME280;30873;53.908;27.576;2023-04-01T00:16:28;998.8;;;9.6;91.8
45113;BME280;30873;53.908;27.576;2023-04-01T00:21:04;998.8;;;9.6;92.4
45113;BME280;30873;53.908;27.576;2023-04-01T00:26:36;998.8;;;9.6;93.1
45113;BME280;30873;53.908;27.576;2023-04-01T00:30:51;998.8;;;9.6;93.4
45113;BME280;30873;53.908;27.576;2023-04-01T00:35:50;998.7;;;9.6;93.6
45113;BME280;30873;53.908;27.576;2023-04-01T00:40:50;998.7;;;9.6;93.9
45113;BME280;30873;53.908;27.576;2023-04-01T00:46:22;998.6;;;9.7;93.9
45113;BME280;30873;53.908;27.576;2023-04-01T00:51:38;998.6;;;9.8;94.2
45113;BME280;30873;53.908;27.576;2023-04-01T00:56:15;998.6;;;9.9;93.5
45113;BME280;30873;53.908;27.576;2023-04-01T01:01:00;998.6;;;10;93.2
45113;BME280;30873;53.908;27.576;2023-04-01T01:06:30;998.5;;;9.9;93
45113;BME280;30873;53.908;27.576;2023-04-01T01:11:14;998.5;;;9.9;93.4
45113;BME280;30873;53.908;27.576;2023-04-01T01:16:42;998.5;;;9.9;93.9
45113;BME280;30873;53.908;27.576;2023-04-01T01:21:13;998.6;;;10.1;94.9
45113;BME280;30873;53.908;27.576;2023-04-01T01:25:53;998.6;;;10.1;94.9
45113;BME280;30873;53.908;27.576;2023-04-01T01:31:29;998.5;;;10.1;94.3
45113;BME280;30873;53.908;27.576;2023-04-01T01:36:14;998.5;;;10;94.4
45113;BME280;30873;53.908;27.576;2023-04-01T01:41:39;998.6;;;10;94.9
45113;BME280;30873;53.908;27.576;2023-04-01T01:46:16;998.5;;;9.8;95.1
45113;BME280;30873;53.908;27.576;2023-04-01T01:50:50;998.5;;;9.8;95.5
45113;BME280;30873;53.908;27.576;2023-04-01T01:56:38;998.5;;;9.8;95.8
45113;BME280;30873;53.908;27.576;2023-04-01T02:01:01;998.6;;;9.7;96.3
45113;BME280;30873;53.908;27.576;2023-04-01T02:06:09;998.6;;;9.7;96.6
45113;BME280;30873;53.908;27.576;2023-04-01T02:11:15;998.6;;;9.8;97
45113;BME280;30873;53.908;27.576;2023-04-01T02:15:50;998.5;;;9.8;97.3
45113;BME280;30873;53.908;27.576;2023-04-01T02:21:38;998.5;;;9.8;97.2
45113;BME280;30873;53.908;27.576;2023-04-01T02:26:22;998.5;;;9.7;97.2
45113;BME280;30873;53.908;27.576;2023-04-01T02:31:22;998.6;;;9.6;98
45113;BME280;30873;53.908;27.576;2023-04-01T02:36:38;998.7;;;9.5;97.7
45113;BME280;30873;53.908;27.576;2023-04-01T02:41:00;998.6;;;9.4;98.2
45113;BME280;30873;53.908;27.576;2023-04-01T02:46:24;998.6;;;9.4;99.2
45113;BME280;30873;53.908;27.576;2023-04-01T02:51:08;998.6;;;9.5;99.8
45113;BME280;30873;53.908;27.576;2023-04-01T02:56:22;998.6;;;9.5;100
45113;BME280;30873;53.908;27.576;2023-04-01T03:01:14;998.6;;;9.6;100
45113;BME280;30873;53.908;27.576;2023-04-01T03:05:50;998.6;;;9.7;99.3
45113;BME280;30873;53.908;27.576;2023-04-01T03:11:38;998.5;;;9.5;99.4
45113;BME280;30873;53.908;27.576;2023-04-01T03:16:00;998.5;;;9.5;99.4
45113;BME280;30873;53.908;27.576;2023-04-01T03:21:23;998.5;;;9.4;99.3
45113;BME280;30873;53.908;27.576;2023-04-01T03:26:04;998.4;;;9.4;99.6
45113;BME280;30873;53.908;27.576;2023-04-01T03:31:00;998.4;;;9.2;99.8
45113;BME280;30873;53.908;27.576;2023-04-01T03:36:38;998.5;;;9.4;100
45113;BME280;30873;53.908;27.576;2023-04-01T03:41:00;998.5;;;9.6;100
45113;BME280;30873;53.908;27.576;2023-04-01T03:46:22;998.6;;;9.6;100
45113;BME280;30873;53.908;27.576;2023-04-01T03:51:14;998.5;;;9.4;99.4
45113;BME280;30873;53.908;27.576;2023-04-01T03:56:08;998.6;;;9.4;99.6
45113;BME280;30873;53.908;27.576;2023-04-01T04:01:38;998.7;;;9.3;99.8
45113;BME280;30873;53.908;27.576;2023-04-01T04:05:50;998.8;;;9.3;100
45113;BME280;30873;53.908;27.576;2023-04-01T04:11:38;998.9;;;9.3;100
45113;BME280;30873;53.908;27.576;2023-04-01T04:16:00;998.8;;;9.3;100
45113;BME280;30873;53.908;27.576;2023-04-01T04:20:50;998.8;;;9.3;100
45113;BME280;30873;53.908;27.576;2023-04-01T04:26:38;998.8;;;9.3;100
45113;BME280;30873;53.908;27.576;2023-04-01T04:30:50;998.8;;;9.3;100
45113;BME280;30873;53.908;27.576;2023-04-01T04:36:22;998.7;;;9.2;100
45113;BME280;30873;53.908;27.576;2023-04-01T04:41:02;998.8;;;9.3;100
45113;BME280;30873;53.908;27.576;2023-04-01T04:46:03;998.9;;;9.4;100
45113;BME280;30873;53.908;27.576;2023-04-01T04:51:36;998.8;;;9.4;100
45113;BME280;30873;53.908;27.576;2023-04-01T04:55:50;998.9;;;9.5;100
45113;BME280;30873;53.908;27.576;2023-04-01T05:01:22;998.8;;;9.7;100
45113;BME280;30873;53.908;27.576;2023-04-01T05:06:15;998.8;;;9.8;100
45113;BME280;30873;53.908;27.576;2023-04-01T05:10:50;998.7;;;10.2;100
45113;BME280;30873;53.908;27.576;2023-04-01T05:16:38;998.6;;;10.5;99.5
45113;BME280;30873;53.908;27.576;2023-04-01T05:21:00;998.6;;;10.7;98.9
45113;BME280;30873;53.908;27.576;2023-04-01T05:26:02;998.6;;;10.8;96.3
45113;BME280;30873;53.908;27.576;2023-04-01T05:31:14;998.7;;;10.7;94.9
45113;BME280;30873;53.908;27.576;2023-04-01T05:36:08;998.8;;;10.6;94.3
45113;BME280;30873;53.908;27.576;2023-04-01T05:41:15;998.8;;;10.6;95
45113;BME280;30873;53.908;27.576;2023-04-01T05:45:50;998.7;;;10.9;95.3
45113;BME280;30873;53.908;27.576;2023-04-01T05:51:38;998.7;;;11.3;94.9
45113;BME280;30873;53.908;27.576;2023-04-01T05:56:20;998.7;;;11.6;92.7
45113;BME280;30873;53.908;27.576;2023-04-01T06:01:38;998.7;;;11.7;90.4
45113;BME280;30873;53.908;27.576;2023-04-01T06:06:23;998.7;;;11.8;89
45113;BME280;30873;53.908;27.576;2023-04-01T06:11:04;998.7;;;11.9;87.5
45113;BME280;30873;53.908;27.576;2023-04-01T06:16:42;998.7;;;11.9;87.1
45113;BME280;30873;53.908;27.576;2023-04-01T06:21:28;998.8;;;12.1;86.4
45113;BME280;30873;53.908;27.576;2023-04-01T06:26:39;998.8;;;12.2;85.6
45113;BME280;30873;53.908;27.576;2023-04-01T06:31:16;998.8;;;12;84.7
45113;BME280;30873;53.908;27.576;2023-04-01T06:36:06;998.8;;;11.9;86.2
45113;BME280;30873;53.908;27.576;2023-04-01T06:41:59;998.8;;;12.1;86.3
45113;BME280;30873;53.908;27.576;2023-04-01T06:46:16;998.9;;;12.2;85.9
45113;BME280;30873;53.908;27.576;2023-04-01T06:51:39;998.8;;;12.3;85.1
45113;BME280;30873;53.908;27.576;2023-04-01T06:56:05;998.8;;;12.5;84.5
45113;BME280;30873;53.908;27.576;2023-04-01T07:01:06;998.8;;;12.5;84
45113;BME280;30873;53.908;27.576;2023-04-01T07:06:39;998.9;;;12.2;83.8
45113;BME280;30873;53.908;27.576;2023-04-01T07:11:24;999;;;12.1;85.7
45113;BME280;30873;53.908;27.576;2023-04-01T07:16:39;999;;;12.1;86.3
45113;BME280;30873;53.908;27.576;2023-04-01T07:21:40;999.1;;;12;86.2
45113;BME280;30873;53.908;27.576;2023-04-01T07:26:15;999.1;;;11.9;87.9
45113;BME280;30873;53.908;27.576;2023-04-01T07:31:44;999.1;;;11.8;88.8
45113;BME280;30873;53.908;27.576;2023-04-01T07:36:39;999.1;;;11.8;89.2
45113;BME280;30873;53.908;27.576;2023-04-01T07:41:41;999.1;;;11.8;89.8
45113;BME280;30873;53.908;27.576;2023-04-01T07:46:17;999.2;;;11.7;89.6
45113;BME280;30873;53.908;27.576;2023-04-01T07:51:15;999.3;;;11.6;90.4
45113;BME280;30873;53.908;27.576;2023-04-01T07:56:40;999.3;;;11.5;91.2
45113;BME280;30873;53.908;27.576;2023-04-01T08:01:23;999.4;;;11.5;91.7
45113;BME280;30873;53.908;27.576;2023-04-01T08:06:40;999.4;;;11.4;92.1
45113;BME280;30873;53.908;27.576;2023-04-01T08:11:06;999.4;;;11.4;93
45113;BME280;30873;53.908;27.576;2023-04-01T08:16:06;999.3;;;11.4;92.9
45113;BME280;30873;53.908;27.576;2023-04-01T08:21:40;999.4;;;11.5;93.6
45113;BME280;30873;53.908;27.576;2023-04-01T08:26:25;999.4;;;11.5;93.4
45113;BME280;30873;53.908;27.576;2023-04-01T08:31:39;999.4;;;11.5;94.3
45113;BME280;30873;53.908;27.576;2023-04-01T08:36:02;999.4;;;11.4;95.6
45113;BME280;30873;53.908;27.576;2023-04-01T08:40:55;999.3;;;11.6;96.5
45113;BME280;30873;53.908;27.576;2023-04-01T08:46:43;999.3;;;11.7;96
45113;BME280;30873;53.908;27.576;2023-04-01T08:51:43;999.2;;;11.8;95.3
45113;BME280;30873;53.908;27.576;2023-04-01T08:56:38;999.3;;;12.1;94.9
45113;BME280;30873;53.908;27.576;2023-04-01T09:01:19;999.2;;;12.4;92.9
45113;BME280;30873;53.908;27.576;2023-04-01T09:06:01;999.1;;;12.4;91.7
45113;BME280;30873;53.908;27.576;2023-04-01T09:11:45;999;;;12.5;91.6
45113;BME280;30873;53.908;27.576;2023-04-01T09:16:27;999;;;12.5;91
45113;BME280;30873;53.908;27.576;2023-04-01T09:21:45;999;;;12.6;91.1
45113;BME280;30873;53.908;27.576;2023-04-01T09:25:53;999;;;12.7;90
45113;BME280;30873;53.908;27.576;2023-04-01T09:31:26;999.1;;;12.5;88.3
45113;BME280;30873;53.908;27.576;2023-04-01T09:36:45;999.2;;;12.5;89.7
45113;BME280;30873;53.908;27.576;2023-04-01T09:41:27;999.3;;;12.5;89.4
45113;BME280;30873;53.908;27.576;2023-04-01T09:46:45;999.3;;;12.4;89.3
45113;BME280;30873;53.908;27.576;2023-04-01T09:51:20;999.3;;;12.3;89.5
45113;BME280;30873;53.908;27.576;2023-04-01T09:56:27;999.4;;;12.1;90.8
45113;BME280;30873;53.908;27.576;2023-04-01T10:01:42;999.5;;;12.1;92
45113;BME280;30873;53.908;27.576;2023-04-01T10:06:22;999.5;;;12.1;92.3
45113;BME280;30873;53.908;27.576;2023-04-01T10:11:45;999.4;;;12.5;92.5
45113;BME280;30873;53.908;27.576;2023-04-01T10:15:55;999.4;;;12.7;89.7
45113;BME280;30873;53.908;27.576;2023-04-01T10:21:10;999.4;;;12.7;89
45113;BME280;30873;53.908;27.576;2023-04-01T10:26:19;999.5;;;12.8;89.6
45113;BME280;30873;53.908;27.576;2023-04-01T10:36:52;999.5;;;12.9;90.2
45113;BME280;30873;53.908;27.576;2023-04-01T10:41:19;999.5;;;13;89.4
45113;BME280;30873;53.908;27.576;2023-04-01T10:46:05;999.5;;;12.9;89.9
45113;BME280;30873;53.908;27.576;2023-04-01T10:51:01;999.5;;;12.7;90.5
45113;BME280;30873;53.908;27.576;2023-04-01T10:56:29;999.5;;;12.8;91.9
45113;BME280;30873;53.908;27.576;2023-04-01T11:01:53;999.6;;;12.9;91.8
45113;BME280;30873;53.908;27.576;2023-04-01T11:06:06;999.6;;;12.8;90.5
45113;BME280;30873;53.908;27.576;2023-04-01T11:12:29;999.6;;;12.7;92
45113;BME280;30873;53.908;27.576;2023-04-01T11:16:12;999.6;;;12.8;92.4
45113;BME280;30873;53.908;27.576;2023-04-01T11:21:13;999.6;;;12.7;92.6
45113;BME280;30873;53.908;27.576;2023-04-01T11:26:41;999.7;;;12.8;93.5
45113;BME280;30873;53.908;27.576;2023-04-01T11:31:47;999.7;;;12.9;93.5
45113;BME280;30873;53.908;27.576;2023-04-01T11:35:55;999.7;;;13.2;93.3
45113;BME280;30873;53.908;27.576;2023-04-01T11:41:11;999.6;;;13.4;91.8
45113;BME280;30873;53.908;27.576;2023-04-01T11:46:22;999.7;;;13.5;90.3
45113;BME280;30873;53.908;27.576;2023-04-01T11:51:42;999.7;;;13.4;90.6
45113;BME280;30873;53.908;27.576;2023-04-01T11:56:19;999.7;;;13.3;91.3
45113;BME280;30873;53.908;27.576;2023-04-01T12:01:03;999.6;;;13.2;92.5
45113;BME280;30873;53.908;27.576;2023-04-01T12:05:51;999.6;;;13.4;92.9
45113;BME280;30873;53.908;27.576;2023-04-01T12:11:22;999.6;;;13.6;93.2
45113;BME280;30873;53.908;27.576;2023-04-01T12:16:42;999.6;;;13.9;91.7
45113;BME280;30873;53.908;27.576;2023-04-01T12:21:17;999.6;;;13.8;91.1
45113;BME280;30873;53.908;27.576;2023-04-01T12:26:00;999.6;;;13.7;92.3
45113;BME280;30873;53.908;27.576;2023-04-01T12:30:53;999.7;;;13.9;93.5
45113;BME280;30873;53.908;27.576;2023-04-01T12:36:25;999.7;;;14.1;91.6
45113;BME280;30873;53.908;27.576;2023-04-01T12:46:13;999.8;;;13.5;93.7
45113;BME280;30873;53.908;27.576;2023-04-01T12:50:56;999.8;;;13.4;95.7
45113;BME280;30873;53.908;27.576;2023-04-01T12:56:06;999.9;;;13.4;97
45113;BME280;30873;53.908;27.576;2023-04-01T13:01:28;999.9;;;13.3;98.1
45113;BME280;30873;53.908;27.576;2023-04-01T13:06:43;1000;;;13.4;98.5
45113;BME280;30873;53.908;27.576;2023-04-01T13:11:30;1000;;;13.4;98.6
45113;BME280;30873;53.908;27.576;2023-04-01T13:16:02;1000;;;13.3;99
45113;BME280;30873;53.908;27.576;2023-04-01T13:21:15;1000;;;13.2;100
45113;BME280;30873;53.908;27.576;2023-04-01T13:26:24;1000.1;;;13.1;100
45113;BME280;30873;53.908;27.576;2023-04-01T13:31:44;1000.2;;;12.8;100
45113;BME280;30873;53.908;27.576;2023-04-01T13:36:08;1000.3;;;12.8;100
45113;BME280;30873;53.908;27.576;2023-04-01T13:40:51;1000.3;;;12.8;100
45113;BME280;30873;53.908;27.576;2023-04-01T13:46:22;1000.3;;;12.8;100
45113;BME280;30873;53.908;27.576;2023-04-01T13:51:13;1000.3;;;12.7;100
45113;BME280;30873;53.908;27.576;2023-04-01T13:56:42;1000.4;;;12.5;100
45113;BME280;30873;53.908;27.576;2023-04-01T14:01:17;1000.4;;;12.5;100
45113;BME280;30873;53.908;27.576;2023-04-01T14:06:28;1000.4;;;12.4;100
45113;BME280;30873;53.908;27.576;2023-04-01T14:11:14;1000.4;;;12.4;100
45113;BME280;30873;53.908;27.576;2023-04-01T14:16:47;1000.4;;;12.5;100
45113;BME280;30873;53.908;27.576;2023-04-01T14:21:27;1000.4;;;12.5;100
45113;BME280;30873;53.908;27.576;2023-04-01T14:27:47;1000.4;;;12.5;100
45113;BME280;30873;53.908;27.576;2023-04-01T14:30:58;1000.4;;;12.5;100
45113;BME280;30873;53.908;27.576;2023-04-01T14:36:25;1000.5;;;12.5;100
45113;BME280;30873;53.908;27.576;2023-04-01T14:41:30;1000.5;;;12.5;100
45113;BME280;30873;53.908;27.576;2023-04-01T14:47:33;1000.5;;;12.6;100
45113;BME280;30873;53.908;27.576;2023-04-01T14:51:41;1000.5;;;12.6;100
45113;BME280;30873;53.908;27.576;2023-04-01T14:56:37;1000.5;;;12.7;100
45113;BME280;30873;53.908;27.576;2023-04-01T15:00:55;1000.5;;;12.8;100
45113;BME280;30873;53.908;27.576;2023-04-01T15:06:35;1000.5;;;12.8;100
45113;BME280;30873;53.908;27.576;2023-04-01T15:11:14;1000.5;;;12.8;100
45113;BME280;30873;53.908;27.576;2023-04-01T15:16:41;1000.6;;;12.8;100
45113;BME280;30873;53.908;27.576;2023-04-01T15:21:08;1000.6;;;12.8;100
45113;BME280;30873;53.908;27.576;2023-04-01T15:26:07;1000.6;;;12.8;100
45113;BME280;30873;53.908;27.576;2023-04-01T15:31:37;1000.6;;;12.9;100
45113;BME280;30873;53.908;27.576;2023-04-01T15:36:27;1000.6;;;12.9;100
45113;BME280;30873;53.908;27.576;2023-04-01T15:41:34;1000.7;;;12.8;100
45113;BME280;30873;53.908;27.576;2023-04-01T15:46:19;1000.7;;;12.9;100
45113;BME280;30873;53.908;27.576;2023-04-01T15:51:27;1000.7;;;12.9;100
45113;BME280;30873;53.908;27.576;2023-04-01T15:56:42;1000.8;;;13;100
45113;BME280;30873;53.908;27.576;2023-04-01T16:01:14;1000.8;;;13.1;100
45113;BME280;30873;53.908;27.576;2023-04-01T16:06:43;1000.8;;;13.1;100
45113;BME280;30873;53.908;27.576;2023-04-01T16:10:52;1000.8;;;13.2;100
45113;BME280;30873;53.908;27.576;2023-04-01T16:16:07;1000.8;;;13.3;100
45113;BME280;30873;53.908;27.576;2023-04-01T16:21:38;1000.9;;;13.2;100
45113;BME280;30873;53.908;27.576;2023-04-01T16:26:13;1000.9;;;13.2;100
45113;BME280;30873;53.908;27.576;2023-04-01T16:31:42;1001;;;13.3;100
45113;BME280;30873;53.908;27.576;2023-04-01T16:36:05;1001;;;13.2;100
45113;BME280;30873;53.908;27.576;2023-04-01T16:40:53;1001;;;13.2;100
45113;BME280;30873;53.908;27.576;2023-04-01T16:46:38;1001;;;13.2;100
45113;BME280;30873;53.908;27.576;2023-04-01T16:51:23;1001.1;;;13.2;100
45113;BME280;30873;53.908;27.576;2023-04-01T16:56:39;1001.1;;;13.3;100
45113;BME280;30873;53.908;27.576;2023-04-01T17:00:52;1001.1;;;13.2;100
45113;BME280;30873;53.908;27.576;2023-04-01T17:06:25;1001.1;;;13.2;100
45113;BME280;30873;53.908;27.576;2023-04-01T17:11:44;1001.1;;;13.2;100
45113;BME280;30873;53.908;27.576;2023-04-01T17:16:32;1001.1;;;13.2;100
45113;BME280;30873;53.908;27.576;2023-04-01T17:21:47;1001.2;;;13.2;100
45113;BME280;30873;53.908;27.576;2023-04-01T17:26:32;1001.2;;;13.2;100
45113;BME280;30873;53.908;27.576;2023-04-01T17:30:52;1001.2;;;13.1;100
45113;BME280;30873;53.908;27.576;2023-04-01T17:36:44;1001.2;;;13;100
45113;BME280;30873;53.908;27.576;2023-04-01T17:41:41;1001.2;;;12.9;100
45113;BME280;30873;53.908;27.576;2023-04-01T17:46:50;1001.2;;;12.9;100
45113;BME280;30873;53.908;27.576;2023-04-01T17:51:05;1001.3;;;12.9;100
45113;BME280;30873;53.908;27.576;2023-04-01T17:56:30;1001.4;;;12.9;100
45113;BME280;30873;53.908;27.576;2023-04-01T18:01:26;1001.4;;;12.9;100
45113;BME280;30873;53.908;27.576;2023-04-01T18:06:45;1001.4;;;12.9;100
45113;BME280;30873;53.908;27.576;2023-04-01T18:11:40;1001.4;;;12.8;100
45113;BME280;30873;53.908;27.576;2023-04-01T18:16:20;1001.5;;;12.8;100
45113;BME280;30873;53.908;27.576;2023-04-01T18:20:52;1001.5;;;12.8;100
45113;BME280;30873;53.908;27.576;2023-04-01T18:26:03;1001.5;;;12.9;100
45113;BME280;30873;53.908;27.576;2023-04-01T18:31:22;1001.5;;;12.9;100
45113;BME280;30873;53.908;27.576;2023-04-01T18:36:40;1001.5;;;12.9;100
45113;BME280;30873;53.908;27.576;2023-04-01T18:40:51;1001.5;;;12.9;100
45113;BME280;30873;53.908;27.576;2023-04-01T18:45:51;1001.5;;;12.9;100
45113;BME280;30873;53.908;27.576;2023-04-01T18:50:51;1001.5;;;12.8;100
45113;BME280;30873;53.908;27.576;2023-04-01T18:56:24;1001.5;;;12.8;100
45113;BME280;30873;53.908;27.576;2023-04-01T19:01:42;1001.5;;;12.8;100
45113;BME280;30873;53.908;27.576;2023-04-01T19:06:08;1001.5;;;12.8;100
45113;BME280;30873;53.908;27.576;2023-04-01T19:10:53;1001.6;;;12.8;100
45113;BME280;30873;53.908;27.576;2023-04-01T19:16:21;1001.6;;;12.7;100
45113;BME280;30873;53.908;27.576;2023-04-01T19:21:12;1001.6;;;12.6;100
45113;BME280;30873;53.908;27.576;2023-04-01T19:26:42;1001.6;;;12.6;100
45113;BME280;30873;53.908;27.576;2023-04-01T19:31:02;1001.6;;;12.7;100
45113;BME280;30873;53.908;27.576;2023-04-01T19:36:03;1001.7;;;12.7;100
45113;BME280;30873;53.908;27.576;2023-04-01T19:40:53;1001.7;;;12.8;100
45113;BME280;30873;53.908;27.576;2023-04-01T19:46:40;1001.8;;;12.8;100
45113;BME280;30873;53.908;27.576;2023-04-01T19:51:39;1001.8;;;12.7;100
45113;BME280;30873;53.908;27.576;2023-04-01T19:56:02;1001.8;;;12.7;100
45113;BME280;30873;53.908;27.576;2023-04-01T20:01:17;1001.8;;;12.6;100
45113;BME280;30873;53.908;27.576;2023-04-01T20:05:55;1001.8;;;12.6;100
45113;BME280;30873;53.908;27.576;2023-04-01T20:11:24;1001.9;;;12.6;100
45113;BME280;30873;53.908;27.576;2023-04-01T20:16:40;1001.9;;;12.6;100
45113;BME280;30873;53.908;27.576;2023-04-01T20:21:20;1001.9;;;12.7;100
45113;BME280;30873;53.908;27.576;2023-04-01T20:26:18;1002;;;12.8;100
45113;BME280;30873;53.908;27.576;2023-04-01T20:31:04;1002;;;12.8;100
45113;BME280;30873;53.908;27.576;2023-04-01T20:36:21;1002;;;12.8;100
45113;BME280;30873;53.908;27.576;2023-04-01T20:41:39;1002;;;12.7;100
45113;BME280;30873;53.908;27.576;2023-04-01T20:46:28;1002.1;;;12.8;100
45113;BME280;30873;53.908;27.576;2023-04-01T20:50:51;1002.1;;;12.8;100
45113;BME280;30873;53.908;27.576;2023-04-01T20:55:58;1002.1;;;12.6;100
45113;BME280;30873;53.908;27.576;2023-04-01T21:01:25;1002.2;;;12.5;100
45113;BME280;30873;53.908;27.576;2023-04-01T21:06:43;1002.2;;;12.5;100
45113;BME280;30873;53.908;27.576;2023-04-01T21:10:53;1002.3;;;12.5;100
45113;BME280;30873;53.908;27.576;2023-04-01T21:16:22;1002.3;;;12.6;100
45113;BME280;30873;53.908;27.576;2023-04-01T21:20:55;1002.3;;;12.6;100
45113;BME280;30873;53.908;27.576;2023-04-01T21:26:23;1002.3;;;12.6;100
45113;BME280;30873;53.908;27.576;2023-04-01T21:31:40;1002.3;;;12.5;100
45113;BME280;30873;53.908;27.576;2023-04-01T21:35:52;1002.3;;;12.5;100
45113;BME280;30873;53.908;27.576;2023-04-01T21:41:03;1002.3;;;12.7;100
45113;BME280;30873;53.908;27.576;2023-04-01T21:46:12;1002.3;;;12.7;100
45113;BME280;30873;53.908;27.576;2023-04-01T21:51:57;1002.3;;;12.8;100
45113;BME280;30873;53.908;27.576;2023-04-01T21:56:43;1002.4;;;12.8;100
45113;BME280;30873;53.908;27.576;2023-04-01T22:01:37;1002.4;;;12.8;100
45113;BME280;30873;53.908;27.576;2023-04-01T22:06:17;1002.4;;;12.7;100
45113;BME280;30873;53.908;27.576;2023-04-01T22:11:06;1002.4;;;12.6;100
45113;BME280;30873;53.908;27.576;2023-04-01T22:16:23;1002.4;;;12.6;100
45113;BME280;30873;53.908;27.576;2023-04-01T22:21:41;1002.5;;;12.6;100
45113;BME280;30873;53.908;27.576;2023-04-01T22:25:52;1002.5;;;12.5;100
45113;BME280;30873;53.908;27.576;2023-04-01T22:31:26;1002.5;;;12.5;100
45113;BME280;30873;53.908;27.576;2023-04-01T22:36:02;1002.5;;;12.5;100
45113;BME280;30873;53.908;27.576;2023-04-01T22:41:01;1002.5;;;12.6;100
45113;BME280;30873;53.908;27.576;2023-04-01T22:46:34;1002.5;;;12.6;100
45113;BME280;30873;53.908;27.576;2023-04-01T22:50:53;1002.5;;;12.8;100
45113;BME280;30873;53.908;27.576;2023-04-01T22:56:40;1002.5;;;12.8;100
45113;BME280;30873;53.908;27.576;2023-04-01T23:00:52;1002.5;;;12.8;100
45113;BME280;30873;53.908;27.576;2023-04-01T23:06:12;1002.5;;;12.7;100
45113;BME280;30873;53.908;27.576;2023-04-01T23:11:27;1002.5;;;12.8;100
45113;BME280;30873;53.908;27.576;2023-04-01T23:16:07;1002.5;;;12.9;100
45113;BME280;30873;53.908;27.576;2023-04-01T23:21:38;1002.6;;;13;100
45113;BME280;30873;53.908;27.576;2023-04-01T23:25:53;1002.7;;;13;100
45113;BME280;30873;53.908;27.576;2023-04-01T23:30:51;1002.7;;;13;100
45113;BME280;30873;53.908;27.576;2023-04-01T23:36:25;1002.7;;;13;100
45113;BME280;30873;53.908;27.576;2023-04-01T23:41:07;1002.7;;;13;100
45113;BME280;30873;53.908;27.576;2023-04-01T23:46:37;1002.7;;;13;100
45113;BME280;30873;53.908;27.576;2023-04-01T23:50:51;1002.7;;;12.9;100
45113;BME280;30873;53.908;27.576;2023-04-01T23:55:51;1002.7;;;12.9;100
